sensor_id;sensor_type;location;lat;lon;timestamp;P1;durP1;ratioP1;P2;durP2;ratioP2
21034;SDS011;10676;50.848;3.272;2023-04-25T00:01:19;27.10;;;13.07;;
21034;SDS011;10676;50.848;3.272;2023-04-25T00:03:46;28.30;;;14.30;;
21034;SDS011;10676;50.848;3.272;2023-04-25T00:06:13;21.85;;;14.07;;
21034;SDS011;10676;50.848;3.272;2023-04-25T00:08:39;33.22;;;13.85;;
21034;SDS011;10676;50.848;3.272;2023-04-25T00:11:05;29.85;;;15.20;;
21034;SDS011;10676;50.848;3.272;2023-04-25T00:13:31;27.90;;;14.60;;
21034;SDS011;10676;50.848;3.272;2023-04-25T00:15:57;24.20;;;12.73;;
21034;SDS011;10676;50.848;3.272;2023-04-25T00:18:25;20.73;;;12.77;;
21034;SDS011;10676;50.848;3.272;2023-04-25T00:20:53;22.75;;;11.73;;
21034;SDS011;10676;50.848;3.272;2023-04-25T00:23:20;23.60;;;13.38;;
21034;SDS011;10676;50.848;3.272;2023-04-25T00:25:47;29.05;;;13.30;;
21034;SDS011;10676;50.848;3.272;2023-04-25T00:28:14;21.63;;;13.00;;
21034;SDS011;10676;50.848;3.272;2023-04-25T00:30:40;27.25;;;14.40;;
21034;SDS011;10676;50.848;3.272;2023-04-25T00:33:06;23.38;;;13.00;;
21034;SDS011;10676;50.848;3.272;2023-04-25T00:35:32;22.73;;;14.45;;
21034;SDS011;10676;50.848;3.272;2023-04-25T00:37:58;28.48;;;13.77;;
21034;SDS011;10676;50.848;3.272;2023-04-25T00:40:24;24.00;;;13.40;;
21034;SDS011;10676;50.848;3.272;2023-04-25T00:42:51;27.23;;;12.88;;
21034;SDS011;10676;50.848;3.272;2023-04-25T00:45:17;26.30;;;12.73;;
21034;SDS011;10676;50.848;3.272;2023-04-25T00:47:44;25.17;;;13.02;;
21034;SDS011;10676;50.848;3.272;2023-04-25T00:50:10;26.45;;;12.95;;
21034;SDS011;10676;50.848;3.272;2023-04-25T00:52:40;26.92;;;13.00;;
21034;SDS011;10676;50.848;3.272;2023-04-25T00:55:08;26.73;;;13.88;;
21034;SDS011;10676;50.848;3.272;2023-04-25T00:57:35;30.10;;;13.38;;
21034;SDS011;10676;50.848;3.272;2023-04-25T01:00:02;28.45;;;13.30;;
21034;SDS011;10676;50.848;3.272;2023-04-25T01:02:30;24.33;;;12.98;;
21034;SDS011;10676;50.848;3.272;2023-04-25T01:04:57;26.73;;;13.85;;
21034;SDS011;10676;50.848;3.272;2023-04-25T01:07:23;28.35;;;13.57;;
21034;SDS011;10676;50.848;3.272;2023-04-25T01:09:51;23.73;;;12.60;;
21034;SDS011;10676;50.848;3.272;2023-04-25T01:12:17;29.75;;;12.73;;
21034;SDS011;10676;50.848;3.272;2023-04-25T01:14:43;34.97;;;13.25;;
21034;SDS011;10676;50.848;3.272;2023-04-25T01:17:09;31.83;;;13.05;;
21034;SDS011;10676;50.848;3.272;2023-04-25T01:19:35;28.90;;;13.47;;
21034;SDS011;10676;50.848;3.272;2023-04-25T01:22:01;30.05;;;14.07;;
21034;SDS011;10676;50.848;3.272;2023-04-25T01:24:28;30.38;;;13.60;;
21034;SDS011;10676;50.848;3.272;2023-04-25T01:26:56;29.77;;;13.38;;
21034;SDS011;10676;50.848;3.272;2023-04-25T01:29:23;28.87;;;14.97;;
21034;SDS011;10676;50.848;3.272;2023-04-25T01:31:49;23.65;;;13.82;;
21034;SDS011;10676;50.848;3.272;2023-04-25T01:34:16;29.73;;;14.77;;
21034;SDS011;10676;50.848;3.272;2023-04-25T01:36:42;30.08;;;13.90;;
21034;SDS011;10676;50.848;3.272;2023-04-25T01:39:08;32.88;;;14.15;;
21034;SDS011;10676;50.848;3.272;2023-04-25T01:41:34;33.88;;;15.07;;
21034;SDS011;10676;50.848;3.272;2023-04-25T01:44:00;26.83;;;15.20;;
21034;SDS011;10676;50.848;3.272;2023-04-25T01:46:26;34.33;;;14.63;;
21034;SDS011;10676;50.848;3.272;2023-04-25T01:48:52;30.90;;;14.90;;
21034;SDS011;10676;50.848;3.272;2023-04-25T01:51:18;28.00;;;13.13;;
21034;SDS011;10676;50.848;3.272;2023-04-25T01:53:44;30.97;;;13.70;;
21034;SDS011;10676;50.848;3.272;2023-04-25T01:56:10;30.20;;;12.83;;
21034;SDS011;10676;50.848;3.272;2023-04-25T01:58:35;30.77;;;12.97;;
21034;SDS011;10676;50.848;3.272;2023-04-25T02:01:01;23.38;;;12.82;;
21034;SDS011;10676;50.848;3.272;2023-04-25T02:03:27;21.60;;;13.40;;
21034;SDS011;10676;50.848;3.272;2023-04-25T02:05:52;23.73;;;13.93;;
21034;SDS011;10676;50.848;3.272;2023-04-25T02:08:18;31.23;;;16.23;;
21034;SDS011;10676;50.848;3.272;2023-04-25T02:10:44;33.43;;;15.40;;
21034;SDS011;10676;50.848;3.272;2023-04-25T02:13:10;31.88;;;15.85;;
21034;SDS011;10676;50.848;3.272;2023-04-25T02:15:35;27.13;;;15.57;;
21034;SDS011;10676;50.848;3.272;2023-04-25T02:18:01;27.23;;;14.20;;
21034;SDS011;10676;50.848;3.272;2023-04-25T02:20:27;38.07;;;16.53;;
21034;SDS011;10676;50.848;3.272;2023-04-25T02:22:55;34.90;;;16.43;;
21034;SDS011;10676;50.848;3.272;2023-04-25T02:25:21;32.20;;;16.17;;
21034;SDS011;10676;50.848;3.272;2023-04-25T02:27:47;27.90;;;16.47;;
21034;SDS011;10676;50.848;3.272;2023-04-25T02:30:13;28.70;;;16.23;;
21034;SDS011;10676;50.848;3.272;2023-04-25T02:32:40;28.23;;;16.23;;
21034;SDS011;10676;50.848;3.272;2023-04-25T02:35:06;33.20;;;16.70;;
21034;SDS011;10676;50.848;3.272;2023-04-25T02:37:33;27.07;;;15.23;;
21034;SDS011;10676;50.848;3.272;2023-04-25T02:39:59;29.90;;;15.50;;
21034;SDS011;10676;50.848;3.272;2023-04-25T02:42:25;28.87;;;14.77;;
21034;SDS011;10676;50.848;3.272;2023-04-25T02:44:51;32.27;;;14.00;;
21034;SDS011;10676;50.848;3.272;2023-04-25T02:47:17;24.60;;;13.17;;
21034;SDS011;10676;50.848;3.272;2023-04-25T02:49:43;22.70;;;13.23;;
21034;SDS011;10676;50.848;3.272;2023-04-25T02:52:08;29.73;;;13.13;;
21034;SDS011;10676;50.848;3.272;2023-04-25T02:54:34;22.07;;;11.97;;
21034;SDS011;10676;50.848;3.272;2023-04-25T02:57:00;19.33;;;11.17;;
21034;SDS011;10676;50.848;3.272;2023-04-25T02:59:28;19.13;;;11.33;;
21034;SDS011;10676;50.848;3.272;2023-04-25T03:01:53;19.90;;;11.67;;
21034;SDS011;10676;50.848;3.272;2023-04-25T03:04:19;26.27;;;11.83;;
21034;SDS011;10676;50.848;3.272;2023-04-25T03:06:45;19.00;;;10.77;;
21034;SDS011;10676;50.848;3.272;2023-04-25T03:09:11;21.67;;;11.67;;
21034;SDS011;10676;50.848;3.272;2023-04-25T03:11:38;19.80;;;12.33;;
21034;SDS011;10676;50.848;3.272;2023-04-25T03:14:04;24.83;;;11.63;;
21034;SDS011;10676;50.848;3.272;2023-04-25T03:16:30;29.00;;;11.73;;
21034;SDS011;10676;50.848;3.272;2023-04-25T03:18:56;25.57;;;11.30;;
21034;SDS011;10676;50.848;3.272;2023-04-25T03:21:22;20.67;;;11.40;;
21034;SDS011;10676;50.848;3.272;2023-04-25T03:23:47;20.27;;;11.30;;
21034;SDS011;10676;50.848;3.272;2023-04-25T03:26:13;19.73;;;11.17;;
21034;SDS011;10676;50.848;3.272;2023-04-25T03:28:39;21.40;;;10.50;;
21034;SDS011;10676;50.848;3.272;2023-04-25T03:31:05;21.10;;;10.97;;
21034;SDS011;10676;50.848;3.272;2023-04-25T03:33:31;26.20;;;10.43;;
21034;SDS011;10676;50.848;3.272;2023-04-25T03:35:56;23.67;;;10.53;;
21034;SDS011;10676;50.848;3.272;2023-04-25T03:38:22;23.00;;;10.87;;
21034;SDS011;10676;50.848;3.272;2023-04-25T03:40:48;23.83;;;10.73;;
21034;SDS011;10676;50.848;3.272;2023-04-25T03:43:15;30.60;;;11.30;;
21034;SDS011;10676;50.848;3.272;2023-04-25T03:45:41;22.50;;;10.33;;
21034;SDS011;10676;50.848;3.272;2023-04-25T03:48:06;18.90;;;9.47;;
21034;SDS011;10676;50.848;3.272;2023-04-25T03:50:32;25.87;;;10.37;;
21034;SDS011;10676;50.848;3.272;2023-04-25T03:52:58;19.83;;;9.60;;
21034;SDS011;10676;50.848;3.272;2023-04-25T03:55:24;23.60;;;10.43;;
21034;SDS011;10676;50.848;3.272;2023-04-25T03:57:49;19.97;;;10.07;;
21034;SDS011;10676;50.848;3.272;2023-04-25T04:00:15;25.17;;;10.93;;
21034;SDS011;10676;50.848;3.272;2023-04-25T04:02:41;20.33;;;11.13;;
21034;SDS011;10676;50.848;3.272;2023-04-25T04:05:07;19.83;;;10.63;;
21034;SDS011;10676;50.848;3.272;2023-04-25T04:07:33;17.30;;;11.27;;
21034;SDS011;10676;50.848;3.272;2023-04-25T04:10:04;18.30;;;10.57;;
21034;SDS011;10676;50.848;3.272;2023-04-25T04:12:36;20.17;;;10.90;;
21034;SDS011;10676;50.848;3.272;2023-04-25T04:15:03;22.17;;;11.37;;
21034;SDS011;10676;50.848;3.272;2023-04-25T04:17:30;18.43;;;11.20;;
21034;SDS011;10676;50.848;3.272;2023-04-25T04:19:56;20.27;;;11.73;;
21034;SDS011;10676;50.848;3.272;2023-04-25T04:22:22;21.87;;;11.50;;
21034;SDS011;10676;50.848;3.272;2023-04-25T04:24:48;21.27;;;10.18;;
21034;SDS011;10676;50.848;3.272;2023-04-25T04:27:15;15.60;;;9.57;;
21034;SDS011;10676;50.848;3.272;2023-04-25T04:29:42;19.55;;;9.98;;
21034;SDS011;10676;50.848;3.272;2023-04-25T04:32:08;14.97;;;9.50;;
21034;SDS011;10676;50.848;3.272;2023-04-25T04:34:34;24.53;;;9.20;;
21034;SDS011;10676;50.848;3.272;2023-04-25T04:37:00;16.87;;;9.63;;
21034;SDS011;10676;50.848;3.272;2023-04-25T04:39:26;14.97;;;10.23;;
21034;SDS011;10676;50.848;3.272;2023-04-25T04:41:52;18.53;;;9.80;;
21034;SDS011;10676;50.848;3.272;2023-04-25T04:44:18;18.73;;;10.53;;
21034;SDS011;10676;50.848;3.272;2023-04-25T04:46:44;24.07;;;10.47;;
21034;SDS011;10676;50.848;3.272;2023-04-25T04:49:11;17.33;;;10.77;;
21034;SDS011;10676;50.848;3.272;2023-04-25T04:51:38;17.50;;;9.83;;
21034;SDS011;10676;50.848;3.272;2023-04-25T04:54:05;22.17;;;11.23;;
21034;SDS011;10676;50.848;3.272;2023-04-25T04:56:31;16.85;;;10.63;;
21034;SDS011;10676;50.848;3.272;2023-04-25T04:58:58;16.50;;;9.90;;
21034;SDS011;10676;50.848;3.272;2023-04-25T05:01:24;19.90;;;9.90;;
21034;SDS011;10676;50.848;3.272;2023-04-25T05:03:51;15.03;;;10.67;;
21034;SDS011;10676;50.848;3.272;2023-04-25T05:06:17;17.40;;;9.80;;
21034;SDS011;10676;50.848;3.272;2023-04-25T05:08:44;24.07;;;10.87;;
21034;SDS011;10676;50.848;3.272;2023-04-25T05:11:09;19.37;;;10.73;;
21034;SDS011;10676;50.848;3.272;2023-04-25T05:13:36;21.10;;;10.43;;
21034;SDS011;10676;50.848;3.272;2023-04-25T05:16:01;20.03;;;10.20;;
21034;SDS011;10676;50.848;3.272;2023-04-25T05:18:27;20.33;;;9.73;;
21034;SDS011;10676;50.848;3.272;2023-04-25T05:20:53;17.87;;;9.40;;
21034;SDS011;10676;50.848;3.272;2023-04-25T05:23:19;17.20;;;10.17;;
21034;SDS011;10676;50.848;3.272;2023-04-25T05:25:44;19.17;;;9.93;;
21034;SDS011;10676;50.848;3.272;2023-04-25T05:28:11;15.70;;;9.77;;
21034;SDS011;10676;50.848;3.272;2023-04-25T05:30:37;17.40;;;9.27;;
21034;SDS011;10676;50.848;3.272;2023-04-25T05:33:03;15.93;;;10.25;;
21034;SDS011;10676;50.848;3.272;2023-04-25T05:35:29;19.38;;;10.43;;
21034;SDS011;10676;50.848;3.272;2023-04-25T05:37:55;25.65;;;10.40;;
21034;SDS011;10676;50.848;3.272;2023-04-25T05:40:20;20.42;;;10.63;;
21034;SDS011;10676;50.848;3.272;2023-04-25T05:42:46;20.95;;;9.80;;
21034;SDS011;10676;50.848;3.272;2023-04-25T05:45:12;20.13;;;9.60;;
21034;SDS011;10676;50.848;3.272;2023-04-25T05:47:38;22.13;;;9.95;;
21034;SDS011;10676;50.848;3.272;2023-04-25T05:50:04;19.00;;;9.88;;
21034;SDS011;10676;50.848;3.272;2023-04-25T05:52:30;17.63;;;10.95;;
21034;SDS011;10676;50.848;3.272;2023-04-25T05:54:55;18.77;;;10.95;;
21034;SDS011;10676;50.848;3.272;2023-04-25T05:57:25;19.27;;;11.10;;
21034;SDS011;10676;50.848;3.272;2023-04-25T05:59:52;23.40;;;11.32;;
21034;SDS011;10676;50.848;3.272;2023-04-25T06:02:18;20.45;;;9.73;;
21034;SDS011;10676;50.848;3.272;2023-04-25T06:04:46;16.55;;;11.55;;
21034;SDS011;10676;50.848;3.272;2023-04-25T06:07:12;20.40;;;11.13;;
21034;SDS011;10676;50.848;3.272;2023-04-25T06:09:38;16.80;;;10.45;;
21034;SDS011;10676;50.848;3.272;2023-04-25T06:12:04;15.77;;;9.85;;
21034;SDS011;10676;50.848;3.272;2023-04-25T06:14:30;16.05;;;10.98;;
21034;SDS011;10676;50.848;3.272;2023-04-25T06:16:56;16.63;;;10.82;;
21034;SDS011;10676;50.848;3.272;2023-04-25T06:19:22;19.20;;;12.20;;
21034;SDS011;10676;50.848;3.272;2023-04-25T06:21:47;20.45;;;14.70;;
21034;SDS011;10676;50.848;3.272;2023-04-25T06:24:13;16.58;;;14.10;;
21034;SDS011;10676;50.848;3.272;2023-04-25T06:26:39;20.80;;;15.52;;
21034;SDS011;10676;50.848;3.272;2023-04-25T06:29:04;16.27;;;14.52;;
21034;SDS011;10676;50.848;3.272;2023-04-25T06:31:30;17.35;;;15.70;;
21034;SDS011;10676;50.848;3.272;2023-04-25T06:33:58;18.27;;;16.45;;
21034;SDS011;10676;50.848;3.272;2023-04-25T06:36:23;17.63;;;15.95;;
21034;SDS011;10676;50.848;3.272;2023-04-25T06:38:51;21.13;;;16.60;;
21034;SDS011;10676;50.848;3.272;2023-04-25T06:41:20;23.30;;;16.00;;
21034;SDS011;10676;50.848;3.272;2023-04-25T06:43:45;17.85;;;15.73;;
21034;SDS011;10676;50.848;3.272;2023-04-25T06:46:11;1999.90;;;999.90;;
21034;SDS011;10676;50.848;3.272;2023-04-25T06:48:37;1999.90;;;999.90;;
21034;SDS011;10676;50.848;3.272;2023-04-25T06:51:03;516.17;;;264.70;;
21034;SDS011;10676;50.848;3.272;2023-04-25T06:53:28;1014.45;;;510.20;;
21034;SDS011;10676;50.848;3.272;2023-04-25T06:55:54;1011.17;;;510.23;;
21034;SDS011;10676;50.848;3.272;2023-04-25T06:58:20;1999.90;;;999.90;;
21034;SDS011;10676;50.848;3.272;2023-04-25T07:00:46;1999.90;;;999.90;;
21034;SDS011;10676;50.848;3.272;2023-04-25T07:03:11;1999.90;;;999.90;;
21034;SDS011;10676;50.848;3.272;2023-04-25T07:05:37;1999.90;;;999.90;;
21034;SDS011;10676;50.848;3.272;2023-04-25T07:08:03;1999.90;;;999.90;;
21034;SDS011;10676;50.848;3.272;2023-04-25T07:10:29;1999.90;;;999.90;;
21034;SDS011;10676;50.848;3.272;2023-04-25T07:12:54;1999.90;;;999.90;;
21034;SDS011;10676;50.848;3.272;2023-04-25T07:15:20;1999.90;;;999.90;;
21034;SDS011;10676;50.848;3.272;2023-04-25T07:17:46;1999.90;;;999.90;;
21034;SDS011;10676;50.848;3.272;2023-04-25T07:20:11;1999.90;;;999.90;;
21034;SDS011;10676;50.848;3.272;2023-04-25T07:22:37;1999.90;;;999.90;;
21034;SDS011;10676;50.848;3.272;2023-04-25T07:25:03;1999.90;;;999.90;;
21034;SDS011;10676;50.848;3.272;2023-04-25T07:27:29;1999.90;;;999.90;;
21034;SDS011;10676;50.848;3.272;2023-04-25T07:29:55;1999.90;;;999.90;;
21034;SDS011;10676;50.848;3.272;2023-04-25T07:32:21;1999.90;;;999.90;;
21034;SDS011;10676;50.848;3.272;2023-04-25T07:34:47;1999.90;;;999.90;;
21034;SDS011;10676;50.848;3.272;2023-04-25T07:37:13;1999.90;;;999.90;;
21034;SDS011;10676;50.848;3.272;2023-04-25T07:39:39;1999.90;;;999.90;;
21034;SDS011;10676;50.848;3.272;2023-04-25T07:42:05;1999.90;;;999.90;;
21034;SDS011;10676;50.848;3.272;2023-04-25T07:44:33;1999.90;;;999.90;;
21034;SDS011;10676;50.848;3.272;2023-04-25T07:47:04;1999.90;;;999.90;;
21034;SDS011;10676;50.848;3.272;2023-04-25T07:49:32;1999.90;;;999.90;;
21034;SDS011;10676;50.848;3.272;2023-04-25T07:51:59;1999.90;;;999.90;;
21034;SDS011;10676;50.848;3.272;2023-04-25T07:54:25;1999.90;;;999.90;;
21034;SDS011;10676;50.848;3.272;2023-04-25T07:56:51;1999.90;;;999.90;;
21034;SDS011;10676;50.848;3.272;2023-04-25T07:59:16;1999.90;;;999.90;;
21034;SDS011;10676;50.848;3.272;2023-04-25T08:01:42;1999.90;;;999.90;;
21034;SDS011;10676;50.848;3.272;2023-04-25T08:04:08;1999.90;;;999.90;;
21034;SDS011;10676;50.848;3.272;2023-04-25T08:06:33;1999.90;;;999.90;;
21034;SDS011;10676;50.848;3.272;2023-04-25T08:09:00;1999.90;;;999.90;;
21034;SDS011;10676;50.848;3.272;2023-04-25T08:11:25;1999.90;;;999.90;;
21034;SDS011;10676;50.848;3.272;2023-04-25T08:13:51;1999.90;;;999.90;;
21034;SDS011;10676;50.848;3.272;2023-04-25T08:16:17;15.05;;;13.45;;
21034;SDS011;10676;50.848;3.272;2023-04-25T08:18:42;511.40;;;260.23;;
21034;SDS011;10676;50.848;3.272;2023-04-25T08:21:08;512.05;;;261.00;;
21034;SDS011;10676;50.848;3.272;2023-04-25T08:23:36;1999.90;;;999.90;;
21034;SDS011;10676;50.848;3.272;2023-04-25T08:26:02;1999.90;;;999.90;;
21034;SDS011;10676;50.848;3.272;2023-04-25T08:28:28;1999.90;;;999.90;;
21034;SDS011;10676;50.848;3.272;2023-04-25T08:30:54;1999.90;;;999.90;;
21034;SDS011;10676;50.848;3.272;2023-04-25T08:33:19;1999.90;;;999.90;;
21034;SDS011;10676;50.848;3.272;2023-04-25T08:35:45;1999.90;;;999.90;;
21034;SDS011;10676;50.848;3.272;2023-04-25T08:38:11;1999.90;;;999.90;;
21034;SDS011;10676;50.848;3.272;2023-04-25T08:40:37;1999.90;;;999.90;;
21034;SDS011;10676;50.848;3.272;2023-04-25T08:43:04;1999.90;;;999.90;;
21034;SDS011;10676;50.848;3.272;2023-04-25T08:45:36;1999.90;;;999.90;;
21034;SDS011;10676;50.848;3.272;2023-04-25T08:48:06;1999.90;;;999.90;;
21034;SDS011;10676;50.848;3.272;2023-04-25T08:50:37;1999.90;;;999.90;;
21034;SDS011;10676;50.848;3.272;2023-04-25T08:53:21;1999.90;;;999.90;;
21034;SDS011;10676;50.848;3.272;2023-04-25T08:55:51;1999.90;;;999.90;;
21034;SDS011;10676;50.848;3.272;2023-04-25T08:58:19;1999.90;;;999.90;;
21034;SDS011;10676;50.848;3.272;2023-04-25T09:00:48;1999.90;;;999.90;;
21034;SDS011;10676;50.848;3.272;2023-04-25T09:03:15;1999.90;;;999.90;;
21034;SDS011;10676;50.848;3.272;2023-04-25T09:05:41;1999.90;;;999.90;;
21034;SDS011;10676;50.848;3.272;2023-04-25T09:08:07;1999.90;;;999.90;;
21034;SDS011;10676;50.848;3.272;2023-04-25T09:10:33;1999.90;;;999.90;;
21034;SDS011;10676;50.848;3.272;2023-04-25T09:13:03;1999.90;;;999.90;;
21034;SDS011;10676;50.848;3.272;2023-04-25T09:15:31;1999.90;;;999.90;;
21034;SDS011;10676;50.848;3.272;2023-04-25T09:17:58;1999.90;;;999.90;;
21034;SDS011;10676;50.848;3.272;2023-04-25T09:20:24;1999.90;;;999.90;;
21034;SDS011;10676;50.848;3.272;2023-04-25T09:23:03;1999.90;;;999.90;;
21034;SDS011;10676;50.848;3.272;2023-04-25T09:25:34;1999.90;;;999.90;;
21034;SDS011;10676;50.848;3.272;2023-04-25T09:28:05;1999.90;;;999.90;;
21034;SDS011;10676;50.848;3.272;2023-04-25T09:30:32;1999.90;;;999.90;;
21034;SDS011;10676;50.848;3.272;2023-04-25T09:33:06;1999.90;;;999.90;;
21034;SDS011;10676;50.848;3.272;2023-04-25T09:35:39;1999.90;;;999.90;;
21034;SDS011;10676;50.848;3.272;2023-04-25T09:38:13;1999.90;;;999.90;;
21034;SDS011;10676;50.848;3.272;2023-04-25T09:40:43;1999.90;;;999.90;;
21034;SDS011;10676;50.848;3.272;2023-04-25T09:45:46;1999.90;;;999.90;;
21034;SDS011;10676;50.848;3.272;2023-04-25T09:48:19;1999.90;;;999.90;;
21034;SDS011;10676;50.848;3.272;2023-04-25T09:53:44;1999.90;;;999.90;;
21034;SDS011;10676;50.848;3.272;2023-04-25T09:56:14;1999.90;;;999.90;;
21034;SDS011;10676;50.848;3.272;2023-04-25T09:58:41;1999.90;;;999.90;;
21034;SDS011;10676;50.848;3.272;2023-04-25T10:01:07;1999.90;;;999.90;;
21034;SDS011;10676;50.848;3.272;2023-04-25T10:03:37;1999.90;;;999.90;;
21034;SDS011;10676;50.848;3.272;2023-04-25T10:06:08;1999.90;;;999.90;;
21034;SDS011;10676;50.848;3.272;2023-04-25T10:08:39;1999.90;;;999.90;;
21034;SDS011;10676;50.848;3.272;2023-04-25T10:11:07;1999.90;;;999.90;;
21034;SDS011;10676;50.848;3.272;2023-04-25T10:13:35;1999.90;;;999.90;;
21034;SDS011;10676;50.848;3.272;2023-04-25T10:16:02;1999.90;;;999.90;;
21034;SDS011;10676;50.848;3.272;2023-04-25T10:18:29;1999.90;;;999.90;;
21034;SDS011;10676;50.848;3.272;2023-04-25T10:20:59;1999.90;;;999.90;;
21034;SDS011;10676;50.848;3.272;2023-04-25T10:23:26;1999.90;;;999.90;;
21034;SDS011;10676;50.848;3.272;2023-04-25T10:25:54;1999.90;;;999.90;;
21034;SDS011;10676;50.848;3.272;2023-04-25T10:28:20;1999.90;;;999.90;;
21034;SDS011;10676;50.848;3.272;2023-04-25T10:31:06;1999.90;;;999.90;;
21034;SDS011;10676;50.848;3.272;2023-04-25T10:33:34;1999.90;;;999.90;;
21034;SDS011;10676;50.848;3.272;2023-04-25T10:36:14;1999.90;;;999.90;;
21034;SDS011;10676;50.848;3.272;2023-04-25T10:38:44;1999.90;;;999.90;;
21034;SDS011;10676;50.848;3.272;2023-04-25T10:41:11;1999.90;;;999.90;;
21034;SDS011;10676;50.848;3.272;2023-04-25T10:43:44;1999.90;;;999.90;;
21034;SDS011;10676;50.848;3.272;2023-04-25T10:46:24;1999.90;;;999.90;;
21034;SDS011;10676;50.848;3.272;2023-04-25T10:48:52;1999.90;;;999.90;;
21034;SDS011;10676;50.848;3.272;2023-04-25T10:51:23;1999.90;;;999.90;;
21034;SDS011;10676;50.848;3.272;2023-04-25T10:54:03;1999.90;;;999.90;;
21034;SDS011;10676;50.848;3.272;2023-04-25T10:56:31;1999.90;;;999.90;;
21034;SDS011;10676;50.848;3.272;2023-04-25T11:01:44;1999.90;;;999.90;;
21034;SDS011;10676;50.848;3.272;2023-04-25T11:04:23;1999.90;;;999.90;;
21034;SDS011;10676;50.848;3.272;2023-04-25T11:09:41;1999.90;;;999.90;;
21034;SDS011;10676;50.848;3.272;2023-04-25T11:12:09;1999.90;;;999.90;;
21034;SDS011;10676;50.848;3.272;2023-04-25T11:14:36;1999.90;;;999.90;;
21034;SDS011;10676;50.848;3.272;2023-04-25T11:17:02;1999.90;;;999.90;;
21034;SDS011;10676;50.848;3.272;2023-04-25T11:19:28;1999.90;;;999.90;;
21034;SDS011;10676;50.848;3.272;2023-04-25T11:21:59;1999.90;;;999.90;;
21034;SDS011;10676;50.848;3.272;2023-04-25T11:24:31;1999.90;;;999.90;;
21034;SDS011;10676;50.848;3.272;2023-04-25T11:26:59;1999.90;;;999.90;;
21034;SDS011;10676;50.848;3.272;2023-04-25T11:29:29;1999.90;;;999.90;;
21034;SDS011;10676;50.848;3.272;2023-04-25T11:31:55;1999.90;;;999.90;;
21034;SDS011;10676;50.848;3.272;2023-04-25T11:34:23;1999.90;;;999.90;;
21034;SDS011;10676;50.848;3.272;2023-04-25T11:36:58;1999.90;;;999.90;;
21034;SDS011;10676;50.848;3.272;2023-04-25T11:39:25;1999.90;;;999.90;;
21034;SDS011;10676;50.848;3.272;2023-04-25T11:41:51;1999.90;;;999.90;;
21034;SDS011;10676;50.848;3.272;2023-04-25T11:44:18;1999.90;;;999.90;;
21034;SDS011;10676;50.848;3.272;2023-04-25T11:46:45;1999.90;;;999.90;;
21034;SDS011;10676;50.848;3.272;2023-04-25T11:49:12;1999.90;;;999.90;;
21034;SDS011;10676;50.848;3.272;2023-04-25T11:51:42;1999.90;;;999.90;;
21034;SDS011;10676;50.848;3.272;2023-04-25T11:54:09;1999.90;;;999.90;;
21034;SDS011;10676;50.848;3.272;2023-04-25T11:56:35;1999.90;;;999.90;;
21034;SDS011;10676;50.848;3.272;2023-04-25T11:59:01;1999.90;;;999.90;;
21034;SDS011;10676;50.848;3.272;2023-04-25T12:01:30;1999.90;;;999.90;;
21034;SDS011;10676;50.848;3.272;2023-04-25T12:03:57;1999.90;;;999.90;;
21034;SDS011;10676;50.848;3.272;2023-04-25T12:06:30;1999.90;;;999.90;;
21034;SDS011;10676;50.848;3.272;2023-04-25T12:08:59;1999.90;;;999.90;;
21034;SDS011;10676;50.848;3.272;2023-04-25T12:11:30;1999.90;;;999.90;;
21034;SDS011;10676;50.848;3.272;2023-04-25T12:14:01;1999.90;;;999.90;;
21034;SDS011;10676;50.848;3.272;2023-04-25T12:16:39;1999.90;;;999.90;;
21034;SDS011;10676;50.848;3.272;2023-04-25T12:19:06;1999.90;;;999.90;;
21034;SDS011;10676;50.848;3.272;2023-04-25T12:21:32;1999.90;;;999.90;;
21034;SDS011;10676;50.848;3.272;2023-04-25T12:24:17;1999.90;;;999.90;;
21034;SDS011;10676;50.848;3.272;2023-04-25T12:29:33;1999.90;;;999.90;;
21034;SDS011;10676;50.848;3.272;2023-04-25T12:31:59;1999.90;;;999.90;;
21034;SDS011;10676;50.848;3.272;2023-04-25T12:34:27;1999.90;;;999.90;;
21034;SDS011;10676;50.848;3.272;2023-04-25T12:36:54;1999.90;;;999.90;;
21034;SDS011;10676;50.848;3.272;2023-04-25T12:39:21;1999.90;;;999.90;;
21034;SDS011;10676;50.848;3.272;2023-04-25T12:41:48;1999.90;;;999.90;;
21034;SDS011;10676;50.848;3.272;2023-04-25T12:44:14;1999.90;;;999.90;;
21034;SDS011;10676;50.848;3.272;2023-04-25T12:46:41;1999.90;;;999.90;;
21034;SDS011;10676;50.848;3.272;2023-04-25T12:49:07;1999.90;;;999.90;;
21034;SDS011;10676;50.848;3.272;2023-04-25T12:51:33;1999.90;;;999.90;;
21034;SDS011;10676;50.848;3.272;2023-04-25T12:54:00;1999.90;;;999.90;;
21034;SDS011;10676;50.848;3.272;2023-04-25T12:56:27;1999.90;;;999.90;;
21034;SDS011;10676;50.848;3.272;2023-04-25T12:58:53;1999.90;;;999.90;;
21034;SDS011;10676;50.848;3.272;2023-04-25T13:01:18;1999.90;;;999.90;;
21034;SDS011;10676;50.848;3.272;2023-04-25T13:03:52;1999.90;;;999.90;;
21034;SDS011;10676;50.848;3.272;2023-04-25T13:06:25;1999.90;;;999.90;;
21034;SDS011;10676;50.848;3.272;2023-04-25T13:08:51;1999.90;;;999.90;;
21034;SDS011;10676;50.848;3.272;2023-04-25T13:11:17;1999.90;;;999.90;;
21034;SDS011;10676;50.848;3.272;2023-04-25T13:13:43;1999.90;;;999.90;;
21034;SDS011;10676;50.848;3.272;2023-04-25T13:16:09;1999.90;;;999.90;;
21034;SDS011;10676;50.848;3.272;2023-04-25T13:18:35;1999.90;;;999.90;;
21034;SDS011;10676;50.848;3.272;2023-04-25T13:21:01;1999.90;;;999.90;;
21034;SDS011;10676;50.848;3.272;2023-04-25T13:23:28;1999.90;;;999.90;;
21034;SDS011;10676;50.848;3.272;2023-04-25T13:25:55;1999.90;;;999.90;;
21034;SDS011;10676;50.848;3.272;2023-04-25T13:28:23;1999.90;;;999.90;;
21034;SDS011;10676;50.848;3.272;2023-04-25T13:30:49;1999.90;;;999.90;;
21034;SDS011;10676;50.848;3.272;2023-04-25T13:33:15;1999.90;;;999.90;;
21034;SDS011;10676;50.848;3.272;2023-04-25T13:35:41;1999.90;;;999.90;;
21034;SDS011;10676;50.848;3.272;2023-04-25T13:38:07;1999.90;;;999.90;;
21034;SDS011;10676;50.848;3.272;2023-04-25T13:40:33;1999.90;;;999.90;;
21034;SDS011;10676;50.848;3.272;2023-04-25T13:42:59;1999.90;;;999.90;;
21034;SDS011;10676;50.848;3.272;2023-04-25T13:45:26;1999.90;;;999.90;;
21034;SDS011;10676;50.848;3.272;2023-04-25T13:47:51;1999.90;;;999.90;;
21034;SDS011;10676;50.848;3.272;2023-04-25T13:50:17;1999.90;;;999.90;;
21034;SDS011;10676;50.848;3.272;2023-04-25T13:52:43;1999.90;;;999.90;;
21034;SDS011;10676;50.848;3.272;2023-04-25T13:55:09;1999.90;;;999.90;;
21034;SDS011;10676;50.848;3.272;2023-04-25T13:57:35;1999.90;;;999.90;;
21034;SDS011;10676;50.848;3.272;2023-04-25T14:00:02;1999.90;;;999.90;;
21034;SDS011;10676;50.848;3.272;2023-04-25T14:02:34;1999.90;;;999.90;;
21034;SDS011;10676;50.848;3.272;2023-04-25T14:05:00;1999.90;;;999.90;;
21034;SDS011;10676;50.848;3.272;2023-04-25T14:07:26;1999.90;;;999.90;;
21034;SDS011;10676;50.848;3.272;2023-04-25T14:09:52;1999.90;;;999.90;;
21034;SDS011;10676;50.848;3.272;2023-04-25T14:12:18;1999.90;;;999.90;;
21034;SDS011;10676;50.848;3.272;2023-04-25T14:14:43;1999.90;;;999.90;;
21034;SDS011;10676;50.848;3.272;2023-04-25T14:17:09;1999.90;;;999.90;;